Time;durP1;ratioP1;P1;durP2;ratioP2;P2;SDS_P1;SDS_P2;PMS_P1;PMS_P2;Temp;Humidity;BMP_temperature;BMP_pressure;BME280_temperature;BME280_humidity;BME280_pressure;Samples;Min_cycle;Max_cycle;Signal;HPM_P1;HPM_P2
2022/04/28 00:00:43;;;;;;;2.95;2.70;;;10.80;99.90;;;;;;5087182;28;20570;-69
2022/04/28 00:03:12;;;;;;;3.13;2.92;;;10.80;99.90;;;;;;5086269;28;20210;-69
2022/04/28 00:05:41;;;;;;;3.72;3.42;;;10.80;99.90;;;;;;5093126;28;20244;-69
2022/04/28 00:08:10;;;;;;;3.70;3.40;;;10.70;99.90;;;;;;5093015;28;20206;-69
2022/04/28 00:10:39;;;;;;;3.30;3.10;;;10.70;99.90;;;;;;5093359;28;20714;-69
2022/04/28 00:13:10;;;;;;;3.92;3.47;;;10.50;99.90;;;;;;5092627;28;20664;-70
2022/04/28 00:15:38;;;;;;;3.78;3.47;;;10.40;99.90;;;;;;5093230;28;20306;-69
2022/04/28 00:18:06;;;;;;;6.25;2.92;;;10.40;99.90;;;;;;5092950;28;20198;-65
2022/04/28 00:20:34;;;;;;;3.42;3.13;;;10.40;99.90;;;;;;5092360;28;20248;-68
2022/04/28 00:23:02;;;;;;;3.40;2.97;;;10.20;99.90;;;;;;5092133;28;20230;-68
2022/04/28 00:25:30;;;;;;;3.85;3.55;;;10.20;99.90;;;;;;5092778;28;20265;-69
2022/04/28 00:27:59;;;;;;;4.35;3.95;;;10.20;99.90;;;;;;5092986;28;20199;-67
2022/04/28 00:30:27;;;;;;;8.10;3.72;;;10.10;99.90;;;;;;5092864;28;20202;-69
2022/04/28 00:32:55;;;;;;;3.95;3.42;;;10.00;99.90;;;;;;5091881;28;20251;-69
2022/04/28 00:35:23;;;;;;;3.53;2.90;;;10.00;99.90;;;;;;5092276;28;20248;-69
2022/04/28 00:37:51;;;;;;;3.35;3.05;;;10.00;99.90;;;;;;5092989;28;20252;-70
2022/04/28 00:40:19;;;;;;;3.70;3.50;;;9.90;99.90;;;;;;5092689;28;20668;-69
2022/04/28 00:42:47;;;;;;;4.22;3.15;;;9.90;99.90;;;;;;5092020;28;20198;-69
2022/04/28 00:45:16;;;;;;;3.90;3.50;;;9.90;99.90;;;;;;5092186;28;20610;-70
2022/04/28 00:50:41;;;;;;;3.35;3.00;;;10.10;99.90;;;;;;5079499;28;20214;-70
2022/04/28 00:53:13;;;;;;;3.70;3.22;;;10.30;99.90;;;;;;5092074;28;20272;-70
2022/04/28 00:55:42;;;;;;;3.95;3.22;;;10.40;99.90;;;;;;5092553;28;20635;-69
2022/04/28 00:58:11;;;;;;;3.03;2.83;;;10.50;99.90;;;;;;5092076;28;20203;-69
2022/04/28 01:00:41;;;;;;;3.47;3.17;;;10.50;99.90;;;;;;5092452;28;20206;-70
2022/04/28 01:03:13;;;;;;;3.45;3.05;;;10.60;99.90;;;;;;5086503;28;20254;-69
2022/04/28 01:05:42;;;;;;;3.78;3.47;;;10.60;99.90;;;;;;5092029;28;20317;-70
2022/04/28 01:08:10;;;;;;;2.80;2.60;;;10.60;99.90;;;;;;5092332;28;20389;-70
2022/04/28 01:10:38;;;;;;;4.95;4.00;;;10.70;99.90;;;;;;5092130;28;20233;-71
2022/04/28 01:13:06;;;;;;;3.25;3.05;;;10.80;99.90;;;;;;5091616;28;20731;-70
2022/04/28 01:15:44;;;;;;;2.90;2.70;;;10.70;99.90;;;;;;5091975;28;20244;-70
2022/04/28 01:18:12;;;;;;;3.90;3.50;;;10.70;99.90;;;;;;5091948;28;20230;-69
2022/04/28 01:20:40;;;;;;;3.88;3.22;;;10.60;99.90;;;;;;5091857;28;20610;-70
2022/04/28 01:23:11;;;;;;;3.33;2.90;;;10.60;99.90;;;;;;5091012;28;20247;-71
2022/04/28 01:25:39;;;;;;;3.40;3.20;;;10.60;99.90;;;;;;5091819;28;20588;-71
2022/04/28 01:28:07;;;;;;;6.40;3.95;;;10.40;99.90;;;;;;5091932;28;20206;-71
2022/04/28 01:30:37;;;;;;;3.22;3.00;;;10.40;99.90;;;;;;5091630;28;20252;-71
2022/04/28 01:33:05;;;;;;;3.63;3.33;;;10.30;99.90;;;;;;5090750;28;20206;-71
2022/04/28 01:35:33;;;;;;;5.70;3.70;;;10.20;99.90;;;;;;5091215;28;20245;-70
2022/04/28 01:38:01;;;;;;;3.80;3.50;;;10.20;99.90;;;;;;5091718;28;20256;-70
2022/04/28 01:40:31;;;;;;;4.20;3.70;;;10.00;99.90;;;;;;5091428;28;20298;-71
2022/04/28 01:42:59;;;;;;;4.07;3.67;;;9.80;99.90;;;;;;5091000;28;20203;-70
2022/04/28 01:45:26;;;;;;;3.78;3.47;;;9.70;99.90;;;;;;5091146;28;20222;-70
2022/04/28 01:47:54;;;;;;;6.78;4.13;;;9.60;99.90;;;;;;5091460;28;20202;-70
2022/04/28 01:50:22;;;;;;;4.25;3.95;;;9.50;99.90;;;;;;5091248;28;20720;-70
2022/04/28 01:55:36;;;;;;;4.68;4.28;;;9.40;99.90;;;;;;5091489;28;20222;-70
2022/04/28 01:58:04;;;;;;;5.20;4.05;;;9.40;99.90;;;;;;5091411;28;20256;-71
2022/04/28 02:00:34;;;;;;;4.43;4.03;;;9.20;99.90;;;;;;5091306;28;20206;-70
2022/04/28 02:03:02;;;;;;;4.20;3.90;;;9.20;99.90;;;;;;5090418;28;20209;-70
2022/04/28 02:05:30;;;;;;;4.40;4.00;;;9.20;99.90;;;;;;5090923;28;20740;-70
2022/04/28 02:07:59;;;;;;;4.55;4.18;;;9.30;99.90;;;;;;5091362;28;20268;-70
2022/04/28 02:10:27;;;;;;;4.55;4.18;;;9.30;99.90;;;;;;5090717;28;20203;-71
2022/04/28 02:12:56;;;;;;;3.90;3.47;;;9.40;99.90;;;;;;5090514;28;20260;-70
2022/04/28 02:15:24;;;;;;;4.00;3.70;;;9.30;99.90;;;;;;5090981;28;20272;-70
2022/04/28 02:17:52;;;;;;;4.03;3.50;;;9.30;99.90;;;;;;5090997;28;20213;-70
2022/04/28 02:20:20;;;;;;;3.67;3.22;;;9.40;99.90;;;;;;5090878;28;20198;-71
2022/04/28 02:22:48;;;;;;;4.80;4.30;;;9.30;99.90;;;;;;5090325;28;20237;-70
2022/04/28 02:25:16;;;;;;;4.90;4.15;;;9.30;99.90;;;;;;5090888;28;20309;-70
2022/04/28 02:27:43;;;;;;;5.47;4.28;;;9.20;99.90;;;;;;5090738;28;20547;-69
2022/04/28 02:30:13;;;;;;;4.82;4.43;;;9.30;99.90;;;;;;5090868;28;20202;-71
2022/04/28 02:35:26;;;;;;;4.60;4.18;;;9.60;99.90;;;;;;5086480;28;20253;-69
2022/04/28 02:37:54;;;;;;;4.28;3.97;;;9.60;99.90;;;;;;5091009;28;20222;-72
2022/04/28 02:40:22;;;;;;;3.90;3.60;;;9.60;99.90;;;;;;5090641;28;20305;-70
2022/04/28 02:42:50;;;;;;;4.82;4.22;;;9.60;99.90;;;;;;5090203;28;20691;-70
2022/04/28 02:45:19;;;;;;;9.52;5.10;;;9.60;99.90;;;;;;5093137;28;20264;-70
2022/04/28 02:47:47;;;;;;;3.63;3.42;;;9.50;99.90;;;;;;5095059;28;20297;-70
2022/04/28 02:50:15;;;;;;;4.50;4.10;;;9.70;99.90;;;;;;5094877;28;20301;-70
2022/04/28 02:52:43;;;;;;;4.63;4.05;;;9.70;99.90;;;;;;5094027;28;20574;-70
2022/04/28 02:55:11;;;;;;;5.38;4.85;;;9.80;99.90;;;;;;5094495;28;20256;-70
2022/04/28 02:57:39;;;;;;;4.38;4.07;;;9.60;99.90;;;;;;5094624;28;20237;-70
2022/04/28 03:00:08;;;;;;;4.20;3.90;;;9.70;99.90;;;;;;5094513;28;20668;-70
2022/04/28 03:02:37;;;;;;;5.95;4.55;;;9.50;99.90;;;;;;5091200;28;20225;-70
2022/04/28 03:05:06;;;;;;;4.35;4.03;;;9.40;99.90;;;;;;5099601;28;20317;-70
2022/04/28 03:10:50;;;;;;;4.90;4.43;;;9.50;99.90;;;;;;5094414;28;20198;-70
2022/04/28 03:13:19;;;;;;;5.15;4.65;;;9.40;99.90;;;;;;5093561;28;20206;-70
2022/04/28 03:15:47;;;;;;;5.05;4.57;;;9.40;99.90;;;;;;5094435;28;20219;-70
2022/04/28 03:18:17;;;;;;;4.90;4.60;;;9.40;99.90;;;;;;5094267;28;20728;-71
2022/04/28 03:20:45;;;;;;;5.00;4.60;;;9.50;99.90;;;;;;5094290;28;20206;-71
2022/04/28 03:23:14;;;;;;;5.10;4.70;;;9.30;99.90;;;;;;5093747;28;20202;-71
2022/04/28 03:25:42;;;;;;;5.60;5.18;;;9.40;99.90;;;;;;5093708;28;20276;-70
2022/04/28 03:28:10;;;;;;;5.30;4.90;;;9.50;99.90;;;;;;5094192;28;20236;-71
2022/04/28 03:30:38;;;;;;;4.65;4.35;;;9.60;99.90;;;;;;5093980;28;20720;-70
2022/04/28 03:33:06;;;;;;;6.22;4.07;;;9.70;99.90;;;;;;5093223;28;20241;-70
2022/04/28 03:35:35;;;;;;;5.95;5.28;;;9.80;99.90;;;;;;5094370;28;20283;-70
2022/04/28 03:38:03;;;;;;;4.82;4.32;;;9.70;99.90;;;;;;5094091;28;20245;-70
2022/04/28 03:40:31;;;;;;;4.57;4.22;;;9.70;99.90;;;;;;5093697;28;20667;-70
2022/04/28 03:43:00;;;;;;;5.35;4.85;;;9.60;99.90;;;;;;5093237;28;20198;-70
2022/04/28 03:45:28;;;;;;;4.10;3.80;;;9.70;99.90;;;;;;5093540;28;20262;-70
2022/04/28 03:47:56;;;;;;;5.80;4.78;;;9.80;99.90;;;;;;5093780;28;20313;-70
2022/04/28 03:50:24;;;;;;;4.50;4.20;;;9.80;99.90;;;;;;5093573;28;20230;-70
2022/04/28 03:52:53;;;;;;;4.88;4.40;;;9.80;99.90;;;;;;5093373;28;20203;-70
2022/04/28 03:55:21;;;;;;;4.75;4.45;;;9.70;99.90;;;;;;5093648;28;20337;-70
2022/04/28 03:57:49;;;;;;;5.90;5.50;;;9.60;99.90;;;;;;5093518;28;20297;-71
2022/04/28 04:00:17;;;;;;;5.10;4.80;;;9.50;99.90;;;;;;5093484;28;20288;-70
2022/04/28 04:02:45;;;;;;;8.07;5.45;;;9.20;99.90;;;;;;5092714;28;20285;-70
2022/04/28 04:05:14;;;;;;;5.68;5.30;;;9.20;99.90;;;;;;5093246;28;20230;-69
2022/04/28 04:07:43;;;;;;;5.93;5.40;;;9.00;99.90;;;;;;5093547;28;20253;-70
2022/04/28 04:10:13;;;;;;;5.63;5.15;;;9.20;99.90;;;;;;5093202;28;20323;-70
2022/04/28 04:12:41;;;;;;;6.13;5.65;;;9.20;99.90;;;;;;5092729;28;20202;-71
2022/04/28 04:15:10;;;;;;;7.13;6.50;;;9.00;99.90;;;;;;5093207;28;20244;-70
2022/04/28 04:17:42;;;;;;;6.93;5.60;;;8.90;99.90;;;;;;5093099;28;20194;-70
2022/04/28 04:20:11;;;;;;;8.00;6.95;;;8.70;99.90;;;;;;5093035;28;20761;-69
2022/04/28 04:22:39;;;;;;;10.10;6.72;;;8.70;99.90;;;;;;5092531;28;20237;-70
2022/04/28 04:25:08;;;;;;;7.82;6.95;;;8.70;99.90;;;;;;5092943;28;20284;-69
2022/04/28 04:27:37;;;;;;;7.47;6.78;;;8.70;99.90;;;;;;5092844;28;20687;-69
2022/04/28 04:32:50;;;;;;;7.00;6.40;;;8.70;99.90;;;;;;5091899;28;20214;-69
2022/04/28 04:35:18;;;;;;;7.38;6.68;;;8.70;99.90;;;;;;5086657;28;20226;-70
2022/04/28 04:37:46;;;;;;;7.07;6.45;;;8.90;99.90;;;;;;5092651;28;20222;-71
2022/04/28 04:40:14;;;;;;;7.35;6.65;;;8.80;99.90;;;;;;5092207;28;20191;-70
2022/04/28 04:42:43;;;;;;;7.55;6.95;;;8.90;99.90;;;;;;5091320;28;20207;-70
2022/04/28 04:45:11;;;;;;;7.47;6.78;;;8.80;99.90;;;;;;5092597;28;20268;-70
2022/04/28 04:47:39;;;;;;;8.10;7.30;;;8.80;99.90;;;;;;5092570;28;20392;-70
2022/04/28 04:50:09;;;;;;;8.30;7.70;;;8.80;99.90;;;;;;5171117;22;20748;-62
2022/04/28 04:52:37;;;;;;;6.80;6.30;;;9.00;99.90;;;;;;5050776;28;20235;-62
2022/04/28 04:55:06;;;;;;;7.80;6.05;;;8.90;99.90;;;;;;5051915;28;20228;-62
2022/04/28 04:57:37;;;;;;;8.75;6.82;;;9.00;99.90;;;;;;5051737;28;20310;-61
2022/04/28 05:00:09;;;;;;;7.75;7.07;;;9.00;99.90;;;;;;5051746;28;20696;-62
2022/04/28 05:02:37;;;;;;;7.35;6.75;;;9.00;99.90;;;;;;5051473;28;20204;-62
2022/04/28 05:05:06;;;;;;;7.95;7.25;;;9.00;99.90;;;;;;5047133;28;20660;-61
2022/04/28 05:07:34;;;;;;;6.72;6.15;;;9.00;99.90;;;;;;5051118;28;20307;-61
2022/04/28 05:10:07;;;;;;;7.95;6.50;;;9.10;99.90;;;;;;5051575;28;20744;-62
2022/04/28 05:12:35;;;;;;;7.75;7.15;;;9.20;99.90;;;;;;5051269;28;20684;-62
2022/04/28 05:15:10;;;;;;;7.50;6.80;;;9.30;99.90;;;;;;5048983;28;20782;-64
2022/04/28 05:17:38;;;;;;;7.28;6.68;;;9.30;99.90;;;;;;5035066;28;20740;-62
2022/04/28 05:20:08;;;;;;;7.15;6.55;;;9.40;99.90;;;;;;5035350;28;20743;-62
2022/04/28 05:22:36;;;;;;;8.13;7.40;;;9.50;99.90;;;;;;5034766;28;20285;-62
2022/04/28 05:25:10;;;;;;;7.40;6.78;;;9.50;99.90;;;;;;5034647;28;20211;-63
2022/04/28 05:27:37;;;;;;;7.28;6.65;;;9.40;99.90;;;;;;5035436;28;20305;-63
2022/04/28 05:30:07;;;;;;;7.25;6.65;;;9.60;99.90;;;;;;5034896;28;20787;-63
2022/04/28 05:32:36;;;;;;;8.00;6.07;;;9.60;99.90;;;;;;5034298;28;20310;-63
2022/04/28 05:35:05;;;;;;;7.72;5.82;;;9.60;99.90;;;;;;5034663;28;20208;-62
2022/04/28 05:37:33;;;;;;;6.63;6.13;;;9.80;99.90;;;;;;5035793;28;20275;-63
2022/04/28 05:40:01;;;;;;;5.88;5.47;;;9.90;99.90;;;;;;5033769;28;20220;-62
2022/04/28 05:48:09;;;;;;;8.32;7.32;;;10.30;99.90;;;;;;5033970;28;20252;-63
2022/04/28 05:50:38;;;;;;;7.25;6.65;;;10.40;99.90;;;;;;5034304;28;20346;-62
2022/04/28 05:53:08;;;;;;;7.13;6.43;;;10.50;99.90;;;;;;5033869;28;20273;-62
2022/04/28 05:55:36;;;;;;;5.75;5.35;;;10.70;99.90;;;;;;5040693;28;20302;-64
2022/04/28 05:58:07;;;;;;;6.05;5.65;;;10.80;99.90;;;;;;5049215;28;20618;-63
2022/04/28 06:00:35;;;;;;;6.40;5.80;;;10.90;99.90;;;;;;5046838;28;20584;-63
2022/04/28 06:03:06;;;;;;;7.63;6.80;;;11.10;99.90;;;;;;5049242;28;20639;-64
2022/04/28 06:05:35;;;;;;;7.10;6.50;;;11.30;99.90;;;;;;5049869;28;20207;-63
2022/04/28 06:08:03;;;;;;;6.90;6.30;;;11.40;99.90;;;;;;5049993;28;20281;-63
2022/04/28 06:10:32;;;;;;;7.15;6.45;;;11.50;99.90;;;;;;5044340;28;20668;-63
2022/04/28 06:13:00;;;;;;;5.75;5.25;;;11.50;99.90;;;;;;5042595;28;20253;-62
2022/04/28 06:15:32;;;;;;;6.55;5.72;;;11.60;99.90;;;;;;5049945;28;20199;-63
2022/04/28 06:18:01;;;;;;;7.93;5.53;;;11.40;99.90;;;;;;5049267;28;20616;-64
2022/04/28 06:20:32;;;;;;;6.63;6.03;;;11.40;99.90;;;;;;5048836;28;20302;-63
2022/04/28 06:23:01;;;;;;;6.18;5.68;;;11.50;99.90;;;;;;5046224;28;20199;-64
2022/04/28 06:25:54;;;;;;;7.93;6.53;;;11.50;99.90;;;;;;5048749;28;20208;-63
2022/04/28 06:28:21;;;;;;;7.03;6.40;;;11.60;99.90;;;;;;5050245;28;20215;-64
2022/04/28 06:30:49;;;;;;;7.30;6.70;;;11.60;99.90;;;;;;5048858;28;20211;-62
2022/04/28 06:33:18;;;;;;;7.30;6.70;;;11.70;99.90;;;;;;5048377;28;20191;-63
2022/04/28 06:35:46;;;;;;;8.05;7.30;;;12.00;99.90;;;;;;5048708;28;20249;-63
2022/04/28 06:38:16;;;;;;;8.02;7.22;;;12.10;99.90;;;;;;5050353;28;20235;-63
2022/04/28 06:40:44;;;;;;;9.63;8.07;;;12.20;99.90;;;;;;5049087;28;20250;-63
2022/04/28 06:43:12;;;;;;;9.07;7.35;;;12.30;99.90;;;;;;5049967;28;20203;-62
2022/04/28 06:46:11;;;;;;;9.30;8.50;;;12.40;99.90;;;;;;5050473;28;20212;-62
2022/04/28 06:48:33;;;;;;;9.23;8.32;;;12.60;99.90;;;;;;5049864;28;20319;-63
2022/04/28 06:51:01;;;;;;;8.95;8.25;;;12.80;99.90;;;;;;5050408;28;20235;-63
2022/04/28 06:53:35;;;;;;;10.80;9.70;;;12.90;99.90;;;;;;5049624;28;20235;-63
2022/04/28 06:56:03;;;;;;;11.30;10.32;;;12.90;99.90;;;;;;5050478;28;20234;-63
2022/04/28 06:58:32;;;;;;;9.48;8.68;;;12.90;99.90;;;;;;5050316;28;20666;-64
2022/04/28 07:00:59;;;;;;;11.27;9.75;;;13.10;99.90;;;;;;5050149;28;20242;-64
2022/04/28 07:03:33;;;;;;;11.70;10.60;;;13.30;99.90;;;;;;5049541;28;20300;-63
2022/04/28 07:06:05;;;;;;;10.63;9.75;;;13.40;99.90;;;;;;5049886;28;20228;-63
2022/04/28 07:08:34;;;;;;;12.82;11.55;;;13.50;99.90;;;;;;5050034;28;20242;-63
2022/04/28 07:11:05;;;;;;;12.77;11.63;;;13.60;99.90;;;;;;5049981;28;20204;-63
2022/04/28 07:13:36;;;;;;;13.07;11.88;;;13.60;99.90;;;;;;5049430;28;20239;-63
2022/04/28 07:16:04;;;;;;;13.02;11.93;;;13.60;99.90;;;;;;5050607;28;20265;-63
2022/04/28 07:18:32;;;;;;;12.75;11.52;;;13.60;99.90;;;;;;5050131;28;20638;-63
2022/04/28 07:21:05;;;;;;;13.07;11.75;;;13.70;99.90;;;;;;5050108;28;20303;-63
2022/04/28 07:23:39;;;;;;;13.82;12.32;;;13.80;99.90;;;;;;5049362;28;20208;-63
2022/04/28 07:26:07;;;;;;;13.70;12.40;;;14.00;99.90;;;;;;5043702;28;20214;-62
2022/04/28 07:28:35;;;;;;;13.38;12.07;;;14.10;99.90;;;;;;5043447;28;20227;-63
2022/04/28 07:31:04;;;;;;;13.40;12.10;;;14.20;99.90;;;;;;5045418;28;20231;-63
2022/04/28 07:33:33;;;;;;;13.45;12.32;;;14.40;99.90;;;;;;5046391;28;20206;-63
2022/04/28 07:36:00;;;;;;;14.38;13.00;;;14.40;99.90;;;;;;5052982;28;20713;-63
2022/04/28 07:38:33;;;;;;;12.88;11.77;;;14.50;99.90;;;;;;5047568;28;20216;-62
2022/04/28 07:41:02;;;;;;;13.65;12.55;;;14.60;99.90;;;;;;5053600;28;20231;-62
2022/04/28 07:43:30;;;;;;;13.27;12.05;;;14.80;99.90;;;;;;5052728;28;20266;-62
2022/04/28 07:45:58;;;;;;;12.57;11.52;;;14.90;99.90;;;;;;5053402;28;20204;-62
2022/04/28 07:48:26;;;;;;;11.77;10.93;;;15.10;99.90;;;;;;5052757;28;20220;-63
2022/04/28 07:50:54;;;;;;;13.77;12.60;;;15.20;99.90;;;;;;5053376;28;20279;-62
2022/04/28 07:53:22;;;;;;;13.93;12.52;;;15.30;99.90;;;;;;5052602;28;20661;-62
2022/04/28 07:58:34;;;;;;;15.52;11.98;;;15.50;99.90;;;;;;5053010;28;20231;-62
2022/04/28 08:01:04;;;;;;;12.48;11.38;;;15.70;99.90;;;;;;5052783;28;20208;-63
2022/04/28 08:03:32;;;;;;;14.02;12.65;;;15.70;99.90;;;;;;5052304;28;20665;-62
2022/04/28 08:06:01;;;;;;;13.45;12.40;;;16.00;99.90;;;;;;5052654;28;20214;-62
2022/04/28 08:08:29;;;;;;;13.20;12.00;;;16.00;99.90;;;;;;5052747;28;20228;-62
2022/04/28 08:10:57;;;;;;;13.35;12.05;;;16.30;99.90;;;;;;5053062;28;20216;-62
2022/04/28 08:13:25;;;;;;;14.18;12.90;;;16.40;99.90;;;;;;5052214;28;20282;-63
2022/04/28 08:15:54;;;;;;;12.57;11.15;;;16.50;99.90;;;;;;5052952;28;20254;-63
2022/04/28 08:18:22;;;;;;;11.23;10.10;;;16.60;99.90;;;;;;5052885;28;20257;-62
2022/04/28 08:20:50;;;;;;;11.07;9.95;;;16.70;99.90;;;;;;5052429;28;20302;-62
2022/04/28 08:23:18;;;;;;;11.95;10.85;;;17.00;99.90;;;;;;5052136;28;20653;-62
2022/04/28 08:25:46;;;;;;;11.90;10.48;;;17.20;99.90;;;;;;5052932;28;20239;-62
2022/04/28 08:28:14;;;;;;;11.43;10.35;;;17.40;99.90;;;;;;5052359;28;20668;-63
2022/04/28 08:30:42;;;;;;;10.70;9.68;;;17.50;99.90;;;;;;5052647;28;20295;-63
2022/04/28 08:33:11;;;;;;;14.00;11.90;;;17.50;99.90;;;;;;5051771;28;20192;-63
2022/04/28 08:35:39;;;;;;;13.77;10.90;;;17.80;99.90;;;;;;5052037;28;20222;-63
2022/04/28 08:38:07;;;;;;;12.68;11.70;;;17.90;99.90;;;;;;5052171;28;20199;-63
2022/04/28 08:40:35;;;;;;;12.90;11.70;;;18.10;99.90;;;;;;5052559;28;20676;-62
2022/04/28 08:43:04;;;;;;;12.98;11.88;;;18.30;99.90;;;;;;5051023;28;20246;-63
2022/04/28 08:45:39;;;;;;;11.95;10.80;;;18.50;99.90;;;;;;5052549;28;20253;-63
2022/04/28 08:48:09;;;;;;;11.15;9.98;;;18.60;99.90;;;;;;5052586;28;20207;-63
2022/04/28 08:50:40;;;;;;;11.00;10.00;;;18.80;99.90;;;;;;5051946;28;20240;-63
2022/04/28 08:53:08;;;;;;;12.57;11.30;;;19.00;99.90;;;;;;5051571;28;20207;-63
2022/04/28 08:55:35;;;;;;;12.45;11.25;;;19.20;99.90;;;;;;5052199;28;20262;-63
2022/04/28 08:58:04;;;;;;;12.27;11.07;;;19.40;99.90;;;;;;5051856;28;20295;-63
2022/04/28 09:00:32;;;;;;;11.77;10.82;;;19.60;99.90;;;;;;5051962;28;20246;-63
2022/04/28 09:03:01;;;;;;;11.70;10.70;;;19.70;99.90;;;;;;5051203;28;20210;-63
2022/04/28 09:05:33;;;;;;;10.90;10.00;;;19.80;99.90;;;;;;5049344;28;20251;-63
2022/04/28 09:08:02;;;;;;;10.20;9.30;;;19.90;99.90;;;;;;5055586;28;20245;-63
2022/04/28 09:10:32;;;;;;;10.98;10.07;;;19.90;99.90;;;;;;5057744;28;20593;-63
2022/04/28 09:15:48;;;;;;;14.32;9.55;;;20.30;99.90;;;;;;5051733;28;20208;-63
2022/04/28 09:18:16;;;;;;;10.18;9.30;;;20.30;99.90;;;;;;5051548;28;20203;-63
2022/04/28 09:20:46;;;;;;;10.52;8.77;;;20.50;99.90;;;;;;5051508;28;20587;-63
2022/04/28 09:23:16;;;;;;;10.15;9.35;;;21.00;99.80;;;;;;5050807;28;20208;-64
2022/04/28 09:25:45;;;;;;;8.93;8.15;;;21.20;98.80;;;;;;5051493;28;20647;-63
2022/04/28 09:28:13;;;;;;;9.15;8.38;;;21.50;98.40;;;;;;5051274;28;20228;-64
2022/04/28 09:30:43;;;;;;;8.10;7.40;;;21.40;97.70;;;;;;5051386;28;20689;-63
2022/04/28 09:33:12;;;;;;;8.30;7.60;;;21.40;96.30;;;;;;5044047;28;20204;-63
2022/04/28 09:35:48;;;;;;;7.55;6.90;;;21.50;95.80;;;;;;5047639;28;20200;-63
2022/04/28 09:38:18;;;;;;;6.60;6.10;;;21.70;95.10;;;;;;5046267;28;20207;-64
2022/04/28 09:44:00;;;;;;;7.13;6.40;;;21.90;94.00;;;;;;5030107;28;20404;-64
2022/04/28 09:46:32;;;;;;;6.20;5.80;;;21.80;93.80;;;;;;5051400;28;20207;-64
2022/04/28 09:49:00;;;;;;;5.25;4.85;;;21.90;94.20;;;;;;5050476;28;20248;-63
2022/04/28 09:51:30;;;;;;;7.00;6.30;;;22.20;90.90;;;;;;5051164;28;20247;-64
2022/04/28 09:53:59;;;;;;;5.70;5.30;;;22.50;93.20;;;;;;5050440;28;20230;-64
2022/04/28 09:56:28;;;;;;;4.75;4.35;;;22.90;90.50;;;;;;5051157;28;20204;-64
2022/04/28 09:59:04;;;;;;;6.05;4.50;;;23.00;90.00;;;;;;5051126;28;20242;-63
2022/04/28 10:01:33;;;;;;;13.82;6.00;;;23.20;90.70;;;;;;5051081;28;20200;-63
2022/04/28 10:04:02;;;;;;;6.20;5.60;;;23.30;90.40;;;;;;5050163;28;20239;-63
2022/04/28 10:06:35;;;;;;;6.03;5.53;;;23.20;88.90;;;;;;5050647;28;20207;-64
2022/04/28 10:09:12;;;;;;;5.97;5.15;;;23.00;88.30;;;;;;5050677;28;20709;-64
2022/04/28 10:11:41;;;;;;;6.10;5.15;;;23.00;89.10;;;;;;5050917;28;20234;-64
2022/04/28 10:14:11;;;;;;;6.30;5.70;;;23.40;88.60;;;;;;5049943;28;20287;-63
2022/04/28 10:16:43;;;;;;;6.00;5.45;;;23.40;90.20;;;;;;5050968;28;20672;-63
2022/04/28 10:19:14;;;;;;;5.75;5.25;;;23.40;85.10;;;;;;5050723;28;20239;-63
2022/04/28 10:21:48;;;;;;;7.30;5.65;;;23.30;84.40;;;;;;5050652;28;20586;-63
2022/04/28 10:33:07;;;;;;;4.15;3.83;;;23.80;85.80;;;;;;5049819;28;20486;-63
2022/04/28 10:35:40;;;;;;;4.40;3.95;;;24.00;80.40;;;;;;5050386;28;20199;-63
2022/04/28 10:38:20;;;;;;;6.50;4.57;;;23.60;79.10;;;;;;5050339;28;20231;-64
2022/04/28 10:40:58;;;;;;;5.72;4.70;;;23.60;81.70;;;;;;5050751;28;20192;-62
2022/04/28 10:43:29;;;;;;;5.38;4.88;;;23.40;82.60;;;;;;5049884;28;21124;-64
2022/04/28 10:45:59;;;;;;;5.38;4.88;;;23.70;82.20;;;;;;5050490;28;20196;-63
2022/04/28 10:48:38;;;;;;;5.60;4.72;;;24.10;82.80;;;;;;5050101;28;20249;-64
2022/04/28 10:51:11;;;;;;;6.22;5.70;;;24.70;78.60;;;;;;5009932;28;20237;-65
2022/04/28 10:54:14;;;;;;;5.97;5.38;;;25.10;76.80;;;;;;5009671;28;20732;-63
2022/04/28 10:57:01;;;;;;;5.13;4.72;;;24.90;80.20;;;;;;4950126;29;20207;-63
2022/04/28 10:59:37;;;;;;;5.72;4.28;;;24.30;75.80;;;;;;4944069;29;20322;-63
2022/04/28 11:02:48;;;;;;;4.63;4.32;;;23.90;77.00;;;;;;4988874;28;20693;-64
2022/04/28 11:05:40;;;;;;;5.13;4.57;;;23.20;79.90;;;;;;5011226;28;20197;-64
2022/04/28 11:08:23;;;;;;;4.18;3.72;;;23.50;78.00;;;;;;5014531;28;20197;-65
2022/04/28 11:11:12;;;;;;;3.90;3.50;;;23.80;79.70;;;;;;5014505;28;20250;-64
2022/04/28 11:13:46;;;;;;;3.75;3.45;;;24.00;77.30;;;;;;5013554;28;20592;-64
2022/04/28 11:16:14;;;;;;;3.83;3.53;;;23.60;75.00;;;;;;5014521;28;20213;-64
2022/04/28 11:18:43;;;;;;;4.22;3.92;;;23.60;74.90;;;;;;5014092;28;20305;-64
2022/04/28 11:21:12;;;;;;;3.42;3.22;;;23.60;74.40;;;;;;5014248;28;20583;-64
2022/04/28 11:23:43;;;;;;;4.38;3.83;;;23.90;75.40;;;;;;5013700;28;20229;-64
2022/04/28 11:26:11;;;;;;;3.72;3.53;;;24.20;76.90;;;;;;5014078;28;20615;-64
2022/04/28 11:28:42;;;;;;;4.05;3.75;;;24.50;77.40;;;;;;5013815;28;20209;-64
2022/04/28 11:31:16;;;;;;;3.20;3.00;;;24.50;76.70;;;;;;5014330;28;20260;-65
2022/04/28 11:33:47;;;;;;;4.15;3.85;;;24.70;75.80;;;;;;5013413;28;20303;-64
2022/04/28 11:36:16;;;;;;;4.00;3.70;;;24.50;75.50;;;;;;5013807;28;20232;-64
2022/04/28 11:38:50;;;;;;;3.70;3.40;;;24.60;72.10;;;;;;5013513;28;20236;-64
2022/04/28 11:41:25;;;;;;;4.75;3.75;;;24.30;74.30;;;;;;5013988;28;20240;-64
2022/04/28 11:43:55;;;;;;;3.70;3.50;;;24.20;72.80;;;;;;5013240;28;20280;-65
2022/04/28 11:46:23;;;;;;;4.03;3.70;;;23.90;73.80;;;;;;5013866;28;20259;-64
2022/04/28 11:48:53;;;;;;;4.97;3.30;;;24.10;74.60;;;;;;5013364;28;20722;-64
2022/04/28 11:51:28;;;;;;;4.10;3.80;;;24.30;74.30;;;;;;4993585;28;20241;-65
2022/04/28 11:53:56;;;;;;;4.20;3.80;;;24.70;73.10;;;;;;4992977;28;20233;-64
2022/04/28 11:56:29;;;;;;;4.05;3.35;;;24.60;72.10;;;;;;4993659;28;20656;-64
2022/04/28 11:58:59;;;;;;;3.10;2.90;;;24.60;74.60;;;;;;4993587;28;20723;-64
2022/04/28 12:01:31;;;;;;;5.97;4.20;;;24.60;73.50;;;;;;4993612;28;20330;-64
2022/04/28 12:04:00;;;;;;;3.88;3.58;;;24.30;70.50;;;;;;4995024;28;20209;-65
2022/04/28 12:06:29;;;;;;;3.83;3.40;;;24.10;71.00;;;;;;4995774;28;20268;-64
2022/04/28 12:08:58;;;;;;;4.53;4.22;;;24.50;73.60;;;;;;4993617;28;20277;-64
2022/04/28 12:14:23;;;;;;;3.80;3.47;;;24.50;72.90;;;;;;4993181;28;20210;-64
2022/04/28 12:19:50;;;;;;;3.80;3.60;;;24.80;71.10;;;;;;5012977;28;20333;-64
2022/04/28 12:22:34;;;;;;;4.13;3.78;;;24.90;70.10;;;;;;5012444;28;20208;-64
2022/04/28 12:25:10;;;;;;;4.25;3.95;;;25.30;70.00;;;;;;5013329;28;20236;-65
2022/04/28 12:27:45;;;;;;;3.72;3.42;;;25.40;69.20;;;;;;5013152;28;20232;-65
2022/04/28 12:30:16;;;;;;;3.95;3.60;;;25.50;70.00;;;;;;5012966;28;20220;-65
2022/04/28 12:32:49;;;;;;;5.00;3.70;;;25.70;70.30;;;;;;5012441;28;20201;-65
2022/04/28 12:35:23;;;;;;;4.32;3.80;;;25.70;70.80;;;;;;5014304;28;20209;-64
2022/04/28 12:37:57;;;;;;;3.97;3.67;;;25.50;71.30;;;;;;5012939;28;20205;-64
2022/04/28 12:40:26;;;;;;;4.35;3.95;;;25.50;68.80;;;;;;5012796;28;20338;-64
2022/04/28 12:42:54;;;;;;;4.80;4.10;;;25.30;67.90;;;;;;5012184;28;20233;-64
2022/04/28 12:45:45;;;;;;;4.57;3.67;;;25.30;68.90;;;;;;5012663;28;20251;-64
2022/04/28 12:48:26;;;;;;;6.15;3.50;;;25.70;68.40;;;;;;5012616;28;20284;-64
2022/04/28 12:51:26;;;;;;;3.90;3.60;;;25.80;68.30;;;;;;5011614;28;20331;-64
2022/04/28 12:53:55;;;;;;;3.38;2.90;;;25.20;70.20;;;;;;5011071;28;20728;-64
2022/04/28 12:56:28;;;;;;;3.83;3.58;;;25.40;70.70;;;;;;5011468;28;20232;-64
2022/04/28 12:58:58;;;;;;;3.35;3.05;;;25.70;69.60;;;;;;5011606;28;20225;-64
2022/04/28 13:01:29;;;;;;;4.03;3.72;;;26.20;69.20;;;;;;5011563;28;20205;-63
2022/04/28 13:03:59;;;;;;;3.90;3.50;;;25.90;68.00;;;;;;5012923;28;20228;-64
2022/04/28 13:06:28;;;;;;;3.00;2.80;;;25.80;66.40;;;;;;5013333;28;20205;-64
2022/04/28 13:08:58;;;;;;;3.58;3.28;;;26.20;68.10;;;;;;5010919;28;20268;-64
2022/04/28 13:11:28;;;;;;;4.32;3.28;;;26.40;67.00;;;;;;5011445;28;20248;-64
2022/04/28 13:13:56;;;;;;;2.97;2.78;;;26.20;67.60;;;;;;5010630;28;20205;-64
2022/04/28 13:16:26;;;;;;;3.08;2.88;;;26.50;66.70;;;;;;5011288;28;20209;-63
2022/04/28 13:18:56;;;;;;;3.85;3.55;;;26.30;66.80;;;;;;5010963;28;20268;-64
2022/04/28 13:21:24;;;;;;;4.00;3.70;;;26.20;66.60;;;;;;5011125;28;20288;-64
2022/04/28 13:23:56;;;;;;;4.57;4.13;;;26.40;65.50;;;;;;5010623;28;20209;-64
2022/04/28 13:26:26;;;;;;;3.00;2.90;;;26.80;65.50;;;;;;5011596;28;20209;-64
2022/04/28 13:28:54;;;;;;;4.35;3.40;;;27.20;65.00;;;;;;5010260;28;20275;-65
2022/04/28 13:31:23;;;;;;;4.03;2.90;;;27.10;64.00;;;;;;5010857;28;21136;-64
2022/04/28 13:33:53;;;;;;;3.63;3.33;;;26.70;64.90;;;;;;5011471;28;20232;-65
2022/04/28 13:36:22;;;;;;;4.47;2.88;;;26.80;65.00;;;;;;5005173;28;20607;-62
2022/04/28 13:38:50;;;;;;;2.80;2.60;;;27.40;65.10;;;;;;5008729;28;20205;-64
2022/04/28 13:41:18;;;;;;;3.13;2.83;;;27.10;63.70;;;;;;5004604;28;20248;-65
2022/04/28 13:43:46;;;;;;;3.83;3.53;;;27.00;66.30;;;;;;5003770;28;20205;-64